Terminal Aerodrome Forecast
Issued by NWS

Home | Current Version | Previous Version | Text Only | Print | Product List | Glossary On
Versions: 1 2 3 4 5 6 7 8 9 10 11 12 13 14
000
FTUS46 KHNX 250500
TAFMCE
TAF
KMCE 250540Z 2506/2606 33010KT P6SM SCT070 BKN100
     FM251400 32010KT P6SM -RA BKN035 OVC050
     FM251800 33008KT P6SM -SHRA SCT035 BKN050 PROB30 2520/2524 5SM
      -TSRA BKN035CB
     FM260300 30010KT P6SM BKN050=

USA.gov is the U.S. government's official web portal to all federal, state and local government web resources and services.